createdAt,value
2024-03-05T07:15:15.018Z,7.50
2024-03-05T07:17:43.042Z,7.50
2024-03-05T07:20:13.573Z,7.60
2024-03-05T07:22:40.926Z,7.70
2024-03-05T07:25:08.500Z,7.70
2024-03-05T07:27:35.801Z,7.80
2024-03-05T07:30:03.258Z,8.00
2024-03-05T07:32:30.683Z,8.10
2024-03-05T07:34:58.009Z,8.20
2024-03-05T07:37:25.376Z,8.20
2024-03-05T07:39:52.688Z,8.30
2024-03-05T07:42:19.922Z,8.40
2024-03-05T07:44:47.159Z,8.50
2024-03-05T07:47:14.407Z,8.60
2024-03-05T07:49:41.672Z,8.60
2024-03-05T07:52:09.037Z,8.70
2024-03-05T07:54:36.244Z,8.80
2024-03-05T07:57:03.672Z,8.80
2024-03-05T07:59:30.893Z,8.80
2024-03-05T08:01:58.265Z,8.90
2024-03-05T08:04:25.523Z,8.90
2024-03-05T08:06:55.682Z,8.90
2024-03-05T08:09:23.881Z,9.00
2024-03-05T08:11:51.173Z,9.00
2024-03-05T08:14:18.505Z,9.00
2024-03-05T08:16:45.799Z,9.10
2024-03-05T08:19:13.159Z,9.10
2024-03-05T08:21:40.443Z,9.20
2024-03-05T08:24:07.988Z,9.30
2024-03-05T08:26:35.283Z,9.30
2024-03-05T08:29:02.957Z,9.30
2024-03-05T08:31:30.401Z,9.40
2024-03-05T08:33:57.754Z,9.40
2024-03-05T08:36:24.986Z,9.40
2024-03-05T08:38:52.514Z,9.40
2024-03-05T08:41:19.788Z,9.50
2024-03-05T08:43:47.209Z,9.50
2024-03-05T08:46:14.446Z,9.70
2024-03-05T08:48:41.720Z,9.60
2024-03-05T08:51:08.927Z,9.60
2024-03-05T08:53:36.309Z,9.60
2024-03-05T08:56:03.834Z,9.60
2024-03-05T08:58:31.352Z,9.60
2024-03-05T09:00:58.663Z,9.60
2024-03-05T09:03:25.946Z,9.60
2024-03-05T09:05:53.231Z,9.60
2024-03-05T09:08:20.589Z,9.60
2024-03-05T09:10:48.055Z,9.70
2024-03-05T09:13:15.469Z,9.70
2024-03-05T09:15:44.062Z,9.70
2024-03-05T09:18:11.985Z,9.70
2024-03-05T09:20:39.292Z,9.70
2024-03-05T09:23:06.798Z,9.70
2024-03-05T09:25:34.169Z,9.80
2024-03-05T09:28:01.677Z,9.80
2024-03-05T09:30:28.944Z,9.80
2024-03-05T09:32:56.315Z,9.80
2024-03-05T09:35:23.630Z,9.80
2024-03-05T09:37:51.012Z,9.80
2024-03-05T09:40:19.569Z,9.90
2024-03-05T09:42:47.964Z,9.90
2024-03-05T09:45:18.342Z,10.00
2024-03-05T09:47:48.135Z,10.00
2024-03-05T09:50:17.802Z,10.10
2024-03-05T09:52:46.706Z,10.10
2024-03-05T09:55:14.213Z,10.10
2024-03-05T09:57:41.920Z,10.10
2024-03-05T10:00:13.955Z,10.10
2024-03-05T10:02:41.383Z,10.20
2024-03-05T10:05:11.303Z,10.20
2024-03-05T10:07:38.801Z,10.30
2024-03-05T10:10:07.473Z,10.30
2024-03-05T10:12:35.191Z,10.40
2024-03-05T10:15:27.787Z,10.40
2024-03-05T10:17:56.625Z,10.40
2024-03-05T10:20:30.187Z,10.40
2024-03-05T10:23:02.234Z,10.40
2024-03-05T10:25:31.308Z,10.40
2024-03-05T10:27:58.627Z,10.50
2024-03-05T10:30:29.217Z,10.60
2024-03-05T10:33:07.983Z,10.60
2024-03-05T10:35:35.378Z,10.60
2024-03-05T10:38:07.710Z,10.70
2024-03-05T10:40:35.642Z,10.70
2024-03-05T10:43:05.209Z,10.70
2024-03-05T10:45:37.413Z,10.70
2024-03-05T10:48:05.844Z,10.70
2024-03-05T10:50:35.691Z,10.70
2024-03-05T10:53:03.489Z,10.80
2024-03-05T10:55:32.779Z,10.70
2024-03-05T10:58:00.548Z,10.80
2024-03-05T11:00:27.938Z,10.80
2024-03-05T11:02:59.575Z,10.80
2024-03-05T11:05:28.247Z,10.80
2024-03-05T11:07:56.076Z,10.90
2024-03-05T11:10:27.348Z,10.90
2024-03-05T11:12:55.190Z,10.90
2024-03-05T11:15:22.678Z,11.00
2024-03-05T11:17:49.965Z,11.00
2024-03-05T11:20:40.153Z,11.00
2024-03-05T11:23:07.673Z,11.10
2024-03-05T11:25:35.311Z,11.00
2024-03-05T11:28:02.734Z,11.10
2024-03-05T11:30:30.113Z,11.10
2024-03-05T11:32:57.595Z,11.20
2024-03-05T11:35:26.858Z,11.20
2024-03-05T11:37:56.749Z,11.20
2024-03-05T11:40:34.681Z,11.20
2024-03-05T11:43:02.478Z,11.20
2024-03-05T11:45:49.170Z,11.10
2024-03-05T11:48:20.615Z,11.20
2024-03-05T11:50:51.876Z,11.10
2024-03-05T11:53:19.251Z,11.10
2024-03-05T11:55:46.652Z,11.00
2024-03-05T11:58:23.369Z,10.90
2024-03-05T12:00:50.803Z,10.90
2024-03-05T12:03:20.879Z,10.90
2024-03-05T12:05:48.211Z,10.90
2024-03-05T12:08:15.495Z,10.90
2024-03-05T12:10:43.333Z,10.90
2024-03-05T12:13:19.232Z,10.90
2024-03-05T12:15:46.563Z,10.90
2024-03-05T12:18:13.918Z,11.00
2024-03-05T12:20:41.851Z,10.90
2024-03-05T12:23:09.940Z,10.90
2024-03-05T12:25:37.305Z,11.00
2024-03-05T12:28:06.366Z,11.00
2024-03-05T12:30:34.736Z,11.00
2024-03-05T12:33:02.523Z,11.00
2024-03-05T12:35:29.822Z,11.00
2024-03-05T12:37:57.265Z,10.90
2024-03-05T12:40:24.743Z,10.90
2024-03-05T12:42:52.044Z,10.80
2024-03-05T12:45:20.239Z,10.80
2024-03-05T12:47:59.282Z,10.80
2024-03-05T12:50:27.896Z,10.80
2024-03-05T12:53:05.801Z,10.80
2024-03-05T12:55:33.778Z,10.80
2024-03-05T12:58:04.918Z,10.80
2024-03-05T13:00:32.406Z,10.80
2024-03-05T13:02:59.657Z,10.80
2024-03-05T13:05:27.061Z,10.80
2024-03-05T13:07:54.452Z,10.90
2024-03-05T13:10:21.893Z,10.90
2024-03-05T13:12:49.151Z,10.90
2024-03-05T13:15:16.560Z,10.90
2024-03-05T13:17:43.882Z,10.90
2024-03-05T13:20:12.176Z,11.00
2024-03-05T13:22:39.565Z,11.10
2024-03-05T13:25:07.132Z,11.20
2024-03-05T13:27:34.420Z,11.20
2024-03-05T13:30:09.849Z,11.30
2024-03-05T13:32:41.237Z,11.40
2024-03-05T13:35:08.791Z,11.50
2024-03-05T13:37:36.915Z,11.60
2024-03-05T13:40:05.535Z,11.70
2024-03-05T13:42:33.630Z,11.80
2024-03-05T13:45:00.890Z,11.90
2024-03-05T13:47:31.428Z,11.90
2024-03-05T13:49:59.214Z,11.90
2024-03-05T13:52:26.563Z,11.80
2024-03-05T13:54:53.882Z,11.80
2024-03-05T13:57:21.196Z,11.80
2024-03-05T13:59:48.478Z,11.70
2024-03-05T14:02:15.808Z,11.80
2024-03-05T14:04:43.252Z,11.70
2024-03-05T14:07:10.562Z,11.80
2024-03-05T14:09:38.050Z,11.90
2024-03-05T14:12:05.868Z,11.90
2024-03-05T14:14:33.274Z,11.90
2024-03-05T14:17:00.666Z,12.00
2024-03-05T14:19:28.137Z,12.10
2024-03-05T14:21:55.516Z,12.20
2024-03-05T14:24:22.817Z,12.30
2024-03-05T14:26:50.137Z,12.30
2024-03-05T14:29:17.598Z,12.30
2024-03-05T14:31:45.192Z,12.20
2024-03-05T14:34:12.569Z,12.20
2024-03-05T14:36:39.977Z,12.30
2024-03-05T14:39:07.352Z,12.10
2024-03-05T14:41:35.106Z,12.00
2024-03-05T14:44:03.330Z,11.90
2024-03-05T14:46:30.664Z,12.00
2024-03-05T14:48:58.159Z,11.90
2024-03-05T14:51:25.428Z,11.80
2024-03-05T14:53:53.417Z,12.00
2024-03-05T14:56:20.765Z,12.00
2024-03-05T14:58:48.334Z,11.70
2024-03-05T15:01:15.602Z,11.70
2024-03-05T15:03:42.959Z,11.50
2024-03-05T15:06:10.285Z,11.40
2024-03-05T15:08:37.771Z,11.10
2024-03-05T15:11:05.152Z,11.00
2024-03-05T15:13:32.631Z,10.90
2024-03-05T15:16:00.279Z,10.80
2024-03-05T15:18:27.660Z,10.70
2024-03-05T15:20:54.873Z,10.80
2024-03-05T15:23:22.344Z,10.90
2024-03-05T15:25:52.595Z,10.90
2024-03-05T15:28:19.916Z,10.90
2024-03-05T15:30:50.141Z,11.00
2024-03-05T15:33:17.484Z,11.00
2024-03-05T15:35:44.893Z,11.10
2024-03-05T15:38:12.284Z,11.00
2024-03-05T15:40:39.948Z,11.00
2024-03-05T15:43:08.645Z,11.00
2024-03-05T15:45:36.590Z,11.00
2024-03-05T15:48:04.146Z,11.10
2024-03-05T15:50:31.819Z,11.00
2024-03-05T15:53:00.275Z,11.00
2024-03-05T15:55:28.327Z,11.10
2024-03-05T15:57:57.184Z,10.80
2024-03-05T16:00:26.422Z,10.70
2024-03-05T16:02:53.780Z,10.70
2024-03-05T16:05:28.943Z,10.70
2024-03-05T16:08:04.809Z,10.60
2024-03-05T16:10:38.824Z,10.50
2024-03-05T16:13:12.571Z,10.40
2024-03-05T16:15:39.824Z,10.30
2024-03-05T16:18:07.115Z,10.10
2024-03-05T16:20:34.741Z,10.10
2024-03-05T16:23:02.145Z,10.10
2024-03-05T16:25:29.887Z,10.00
2024-03-05T16:27:58.671Z,9.90
2024-03-05T16:30:27.505Z,9.90
2024-03-05T16:32:55.644Z,9.80
2024-03-05T16:35:23.925Z,9.70
2024-03-05T16:37:51.320Z,9.60
2024-03-05T16:40:19.928Z,9.50
2024-03-05T16:42:48.212Z,9.40
2024-03-05T16:45:15.763Z,9.30
2024-03-05T16:47:44.043Z,9.40
2024-03-05T16:50:12.340Z,9.30
2024-03-05T16:52:44.838Z,9.10
2024-03-05T16:55:13.812Z,9.20
2024-03-05T16:57:43.021Z,9.10
2024-03-05T17:00:12.689Z,8.90
2024-03-05T17:02:40.861Z,8.90
2024-03-05T17:05:08.366Z,8.80
2024-03-05T17:07:35.739Z,8.70
2024-03-05T17:10:03.225Z,8.60
2024-03-05T17:12:30.467Z,8.50
2024-03-05T17:14:57.733Z,8.50
2024-03-05T17:17:25.032Z,8.30
2024-03-05T17:19:52.446Z,8.20
2024-03-05T17:22:19.813Z,8.10
2024-03-05T17:24:47.121Z,8.10
2024-03-05T17:27:14.331Z,8.00
2024-03-05T17:29:41.643Z,7.90
2024-03-05T17:32:09.016Z,7.80
2024-03-05T17:34:36.441Z,7.80
2024-03-05T17:37:03.652Z,7.70
2024-03-05T17:39:31.061Z,7.70
2024-03-05T17:41:58.319Z,7.70
2024-03-05T17:44:25.716Z,7.50
2024-03-05T17:46:53.273Z,7.40
2024-03-05T17:49:20.628Z,7.40
2024-03-05T17:51:50.805Z,7.30
2024-03-05T17:54:18.232Z,7.30
2024-03-05T17:56:45.529Z,7.20
2024-03-05T17:59:12.936Z,7.20
2024-03-05T18:01:40.364Z,7.10
2024-03-05T18:04:07.770Z,7.10
2024-03-05T18:06:35.455Z,7.00
2024-03-05T18:09:03.000Z,7.00
2024-03-05T18:11:30.333Z,6.90
2024-03-05T18:13:57.707Z,6.90
2024-03-05T18:16:25.072Z,6.90
2024-03-05T18:18:58.398Z,6.90
2024-03-05T18:21:29.136Z,6.80
2024-03-05T18:23:58.575Z,6.80
2024-03-05T18:26:26.577Z,6.70
2024-03-05T18:28:57.092Z,6.70
2024-03-05T18:31:25.250Z,6.60
2024-03-05T18:33:52.530Z,6.60
2024-03-05T18:36:19.888Z,6.60
2024-03-05T18:38:47.162Z,6.50
2024-03-05T18:41:14.889Z,6.50
2024-03-05T18:43:42.129Z,6.50
2024-03-05T18:46:09.480Z,6.50
2024-03-05T18:48:36.875Z,6.50
2024-03-05T18:51:04.487Z,6.40
2024-03-05T18:53:39.528Z,6.40
2024-03-05T18:56:11.960Z,6.40
2024-03-05T18:58:39.350Z,6.50
2024-03-05T19:01:06.770Z,6.60
2024-03-05T19:03:34.041Z,6.80
2024-03-05T19:06:01.487Z,7.00
2024-03-05T19:08:28.838Z,7.10
2024-03-05T19:10:56.309Z,7.20
2024-03-05T19:13:23.617Z,7.40
2024-03-05T19:15:50.916Z,7.30
2024-03-05T19:18:18.237Z,7.40
2024-03-05T19:20:45.698Z,7.50
2024-03-05T19:23:13.047Z,7.50
2024-03-05T19:25:40.469Z,7.60
2024-03-05T19:28:07.684Z,7.60
2024-03-05T19:30:35.033Z,7.60
2024-03-05T19:33:02.536Z,7.70
2024-03-05T19:35:29.943Z,7.70
2024-03-05T19:37:57.219Z,7.60
2024-03-05T19:40:24.553Z,7.60
2024-03-05T19:42:58.564Z,7.60
2024-03-05T19:45:26.484Z,7.40
2024-03-05T19:47:54.554Z,7.30
2024-03-05T19:50:22.454Z,7.20
2024-03-05T19:52:50.029Z,7.00
2024-03-05T19:55:17.436Z,6.90
2024-03-05T19:57:45.073Z,6.80
2024-03-05T20:00:13.700Z,6.70
2024-03-05T20:02:41.031Z,6.60
2024-03-05T20:05:08.724Z,6.50
2024-03-05T20:07:36.099Z,6.40
2024-03-05T20:10:03.551Z,6.30
2024-03-05T20:12:30.966Z,6.30
2024-03-05T20:14:58.528Z,6.20
2024-03-05T20:17:27.604Z,6.20
2024-03-05T20:19:55.345Z,6.20
2024-03-05T20:22:23.984Z,6.10
2024-03-05T20:24:51.234Z,6.10
2024-03-05T20:27:18.428Z,6.00
2024-03-05T20:29:45.744Z,6.00
2024-03-05T20:32:13.004Z,5.90
2024-03-05T20:34:40.357Z,5.90
2024-03-05T20:37:07.602Z,5.90
2024-03-05T20:39:34.986Z,5.80
2024-03-05T20:42:02.236Z,5.80
2024-03-05T20:44:29.586Z,5.80
2024-03-05T20:46:56.998Z,5.80
2024-03-05T20:49:24.402Z,5.80
2024-03-05T20:51:51.648Z,5.80
2024-03-05T20:54:19.996Z,5.70
2024-03-05T20:56:47.272Z,5.70
2024-03-05T20:59:14.733Z,5.60
2024-03-05T21:01:42.116Z,5.60
2024-03-05T21:04:11.996Z,5.60
2024-03-05T21:07:19.922Z,5.50
2024-03-05T21:09:47.180Z,5.50
2024-03-05T21:12:14.514Z,5.40
2024-03-05T21:14:41.834Z,5.40
2024-03-05T21:17:09.139Z,5.40
2024-03-05T21:19:36.446Z,5.30
2024-03-05T21:22:03.784Z,5.30
2024-03-05T21:24:31.137Z,5.30
2024-03-05T21:27:15.957Z,5.20
2024-03-05T21:29:45.854Z,5.20
2024-03-05T21:32:13.084Z,5.20
2024-03-05T21:34:40.404Z,5.10
2024-03-05T21:37:07.682Z,5.20
2024-03-05T21:39:35.084Z,5.20
2024-03-05T21:42:02.450Z,5.10
2024-03-05T21:44:37.311Z,5.10
2024-03-05T21:47:09.752Z,5.10
2024-03-05T21:49:37.112Z,5.10
2024-03-05T21:52:04.602Z,5.10
2024-03-05T21:54:31.913Z,5.20
2024-03-05T21:56:59.196Z,5.20
2024-03-05T21:59:29.025Z,5.20
2024-03-05T22:01:56.561Z,5.20
2024-03-05T22:04:23.918Z,5.20
2024-03-05T22:06:53.379Z,5.20
2024-03-05T22:09:21.423Z,5.20
2024-03-05T22:11:48.810Z,5.10
2024-03-05T22:14:16.329Z,5.00
2024-03-05T22:16:43.695Z,5.10
2024-03-05T22:19:11.212Z,5.10
2024-03-05T22:21:38.939Z,5.10
2024-03-05T22:24:06.844Z,5.20
2024-03-05T22:26:39.771Z,5.20
2024-03-05T22:29:07.098Z,5.30
2024-03-05T22:31:34.400Z,5.40
2024-03-05T22:34:01.782Z,5.50
2024-03-05T22:36:29.058Z,5.60
2024-03-05T22:38:56.396Z,5.70
2024-03-05T22:41:23.636Z,5.80
2024-03-05T22:43:51.040Z,5.80
2024-03-05T22:46:18.316Z,5.90
2024-03-05T22:48:45.605Z,6.00
2024-03-05T22:51:12.929Z,6.10
2024-03-05T22:53:40.402Z,6.20
2024-03-05T22:56:07.696Z,6.20
2024-03-05T22:58:36.481Z,6.20
2024-03-05T23:01:04.093Z,6.20
2024-03-05T23:03:32.635Z,6.10
2024-03-05T23:06:03.209Z,6.10
2024-03-05T23:08:32.720Z,6.00
2024-03-05T23:11:00.088Z,5.90
2024-03-05T23:13:27.551Z,5.80
2024-03-05T23:15:54.809Z,5.70
2024-03-05T23:18:22.444Z,5.70
2024-03-05T23:20:49.693Z,5.70
2024-03-05T23:23:17.087Z,5.70
2024-03-05T23:25:45.891Z,5.70
2024-03-05T23:28:14.743Z,5.60
2024-03-05T23:30:41.999Z,5.60
2024-03-05T23:33:09.436Z,5.60
2024-03-05T23:35:36.670Z,5.60
2024-03-05T23:38:06.915Z,5.60
2024-03-05T23:40:34.396Z,5.50
2024-03-05T23:43:01.743Z,5.50
2024-03-05T23:45:29.114Z,5.50
2024-03-05T23:47:56.349Z,5.30
2024-03-05T23:50:23.821Z,5.30
2024-03-05T23:52:51.407Z,5.20
2024-03-05T23:55:18.909Z,5.10
2024-03-05T23:57:46.221Z,5.10
